sensor_id;sensor_type;location;lat;lon;timestamp;P1;durP1;ratioP1;P2;durP2;ratioP2
5678;SDS011;2862;52.560;13.566;2024-03-02T00:00:43;96.07;;;45.20;;
5678;SDS011;2862;52.560;13.566;2024-03-02T00:10:49;102.23;;;47.17;;
5678;SDS011;2862;52.560;13.566;2024-03-02T00:20:54;98.00;;;46.00;;
5678;SDS011;2862;52.560;13.566;2024-03-02T00:30:59;105.70;;;48.37;;
5678;SDS011;2862;52.560;13.566;2024-03-02T00:41:05;99.20;;;47.80;;
5678;SDS011;2862;52.560;13.566;2024-03-02T00:51:09;106.57;;;49.17;;
5678;SDS011;2862;52.560;13.566;2024-03-02T01:01:14;100.97;;;46.40;;
5678;SDS011;2862;52.560;13.566;2024-03-02T01:11:18;97.97;;;44.80;;
5678;SDS011;2862;52.560;13.566;2024-03-02T01:21:24;98.13;;;47.53;;
5678;SDS011;2862;52.560;13.566;2024-03-02T01:31:28;116.37;;;48.87;;
5678;SDS011;2862;52.560;13.566;2024-03-02T01:41:32;106.07;;;48.60;;
5678;SDS011;2862;52.560;13.566;2024-03-02T01:51:35;106.37;;;50.47;;
5678;SDS011;2862;52.560;13.566;2024-03-02T02:01:39;107.63;;;51.67;;
5678;SDS011;2862;52.560;13.566;2024-03-02T02:11:42;121.37;;;55.23;;
5678;SDS011;2862;52.560;13.566;2024-03-02T02:21:46;120.17;;;53.70;;
5678;SDS011;2862;52.560;13.566;2024-03-02T02:31:49;105.50;;;50.63;;
5678;SDS011;2862;52.560;13.566;2024-03-02T02:41:53;126.70;;;55.77;;
5678;SDS011;2862;52.560;13.566;2024-03-02T02:51:56;113.50;;;52.27;;
5678;SDS011;2862;52.560;13.566;2024-03-02T03:02:01;130.90;;;55.23;;
5678;SDS011;2862;52.560;13.566;2024-03-02T03:12:04;120.87;;;56.13;;
5678;SDS011;2862;52.560;13.566;2024-03-02T03:22:08;117.00;;;55.10;;
5678;SDS011;2862;52.560;13.566;2024-03-02T03:32:12;106.97;;;52.27;;
5678;SDS011;2862;52.560;13.566;2024-03-02T03:42:16;121.90;;;54.37;;
5678;SDS011;2862;52.560;13.566;2024-03-02T03:52:19;111.97;;;49.83;;
5678;SDS011;2862;52.560;13.566;2024-03-02T04:02:24;109.43;;;51.90;;
5678;SDS011;2862;52.560;13.566;2024-03-02T04:12:26;114.00;;;51.87;;
5678;SDS011;2862;52.560;13.566;2024-03-02T04:22:32;113.33;;;51.73;;
5678;SDS011;2862;52.560;13.566;2024-03-02T04:32:35;100.83;;;48.13;;
5678;SDS011;2862;52.560;13.566;2024-03-02T04:42:40;95.07;;;44.90;;
5678;SDS011;2862;52.560;13.566;2024-03-02T04:52:43;97.07;;;45.70;;
5678;SDS011;2862;52.560;13.566;2024-03-02T05:02:47;105.80;;;47.80;;
5678;SDS011;2862;52.560;13.566;2024-03-02T05:12:50;97.33;;;45.97;;
5678;SDS011;2862;52.560;13.566;2024-03-02T05:23:02;97.93;;;46.37;;
5678;SDS011;2862;52.560;13.566;2024-03-02T05:33:05;110.73;;;48.27;;
5678;SDS011;2862;52.560;13.566;2024-03-02T05:43:09;94.63;;;45.60;;
5678;SDS011;2862;52.560;13.566;2024-03-02T05:53:13;96.13;;;47.50;;
5678;SDS011;2862;52.560;13.566;2024-03-02T06:03:18;120.07;;;52.60;;
5678;SDS011;2862;52.560;13.566;2024-03-02T06:13:21;112.80;;;52.97;;
5678;SDS011;2862;52.560;13.566;2024-03-02T06:23:26;110.43;;;49.97;;
5678;SDS011;2862;52.560;13.566;2024-03-02T06:33:29;113.77;;;50.03;;
5678;SDS011;2862;52.560;13.566;2024-03-02T06:43:33;121.37;;;51.00;;
5678;SDS011;2862;52.560;13.566;2024-03-02T06:53:36;121.30;;;53.00;;
5678;SDS011;2862;52.560;13.566;2024-03-02T07:03:40;104.60;;;48.23;;
5678;SDS011;2862;52.560;13.566;2024-03-02T07:13:44;110.00;;;48.90;;
5678;SDS011;2862;52.560;13.566;2024-03-02T07:23:48;107.77;;;48.30;;
5678;SDS011;2862;52.560;13.566;2024-03-02T07:33:51;120.07;;;52.03;;
5678;SDS011;2862;52.560;13.566;2024-03-02T07:43:55;97.73;;;45.17;;
5678;SDS011;2862;52.560;13.566;2024-03-02T07:53:58;96.50;;;44.50;;
5678;SDS011;2862;52.560;13.566;2024-03-02T08:04:03;112.73;;;49.70;;
5678;SDS011;2862;52.560;13.566;2024-03-02T08:14:06;101.93;;;46.30;;
5678;SDS011;2862;52.560;13.566;2024-03-02T08:24:10;94.20;;;47.77;;
5678;SDS011;2862;52.560;13.566;2024-03-02T08:34:13;96.30;;;44.77;;
5678;SDS011;2862;52.560;13.566;2024-03-02T08:44:17;88.70;;;42.07;;
5678;SDS011;2862;52.560;13.566;2024-03-02T08:54:20;92.77;;;45.17;;
5678;SDS011;2862;52.560;13.566;2024-03-02T09:04:24;97.60;;;46.30;;
5678;SDS011;2862;52.560;13.566;2024-03-02T09:14:27;95.30;;;44.30;;
5678;SDS011;2862;52.560;13.566;2024-03-02T09:24:31;87.37;;;41.47;;
5678;SDS011;2862;52.560;13.566;2024-03-02T09:34:34;94.57;;;41.07;;
5678;SDS011;2862;52.560;13.566;2024-03-02T09:44:39;75.83;;;38.20;;
5678;SDS011;2862;52.560;13.566;2024-03-02T09:54:42;84.50;;;39.33;;
5678;SDS011;2862;52.560;13.566;2024-03-02T10:04:48;72.10;;;35.27;;
5678;SDS011;2862;52.560;13.566;2024-03-02T10:14:51;74.27;;;36.40;;
5678;SDS011;2862;52.560;13.566;2024-03-02T10:25:07;68.10;;;30.40;;
5678;SDS011;2862;52.560;13.566;2024-03-02T10:35:32;64.03;;;31.07;;
5678;SDS011;2862;52.560;13.566;2024-03-02T10:45:41;64.10;;;29.10;;
5678;SDS011;2862;52.560;13.566;2024-03-02T10:55:45;61.60;;;30.20;;
5678;SDS011;2862;52.560;13.566;2024-03-02T11:05:56;56.30;;;25.13;;
5678;SDS011;2862;52.560;13.566;2024-03-02T11:16:03;53.90;;;26.13;;
5678;SDS011;2862;52.560;13.566;2024-03-02T11:26:18;55.07;;;22.60;;
5678;SDS011;2862;52.560;13.566;2024-03-02T11:36:22;55.83;;;23.00;;
5678;SDS011;2862;52.560;13.566;2024-03-02T11:46:26;47.97;;;21.47;;
5678;SDS011;2862;52.560;13.566;2024-03-02T11:56:28;51.23;;;19.80;;
5678;SDS011;2862;52.560;13.566;2024-03-02T12:06:35;48.03;;;21.70;;
5678;SDS011;2862;52.560;13.566;2024-03-02T12:16:38;48.33;;;19.20;;
5678;SDS011;2862;52.560;13.566;2024-03-02T12:26:44;42.07;;;17.87;;
5678;SDS011;2862;52.560;13.566;2024-03-02T12:36:50;43.87;;;18.30;;
5678;SDS011;2862;52.560;13.566;2024-03-02T12:46:56;38.17;;;16.47;;
5678;SDS011;2862;52.560;13.566;2024-03-02T12:56:59;42.40;;;17.50;;
5678;SDS011;2862;52.560;13.566;2024-03-02T13:07:04;40.93;;;14.87;;
5678;SDS011;2862;52.560;13.566;2024-03-02T13:17:07;36.90;;;15.37;;
5678;SDS011;2862;52.560;13.566;2024-03-02T13:27:12;35.13;;;13.23;;
5678;SDS011;2862;52.560;13.566;2024-03-02T13:37:15;35.80;;;12.63;;
5678;SDS011;2862;52.560;13.566;2024-03-02T13:47:19;32.30;;;12.80;;
5678;SDS011;2862;52.560;13.566;2024-03-02T13:57:23;33.07;;;11.37;;
5678;SDS011;2862;52.560;13.566;2024-03-02T14:07:27;31.83;;;11.73;;
5678;SDS011;2862;52.560;13.566;2024-03-02T14:17:30;35.63;;;11.30;;
5678;SDS011;2862;52.560;13.566;2024-03-02T14:27:35;30.70;;;9.33;;
5678;SDS011;2862;52.560;13.566;2024-03-02T14:37:38;25.50;;;7.70;;
5678;SDS011;2862;52.560;13.566;2024-03-02T14:47:42;36.43;;;8.30;;
5678;SDS011;2862;52.560;13.566;2024-03-02T14:57:45;27.13;;;9.00;;
5678;SDS011;2862;52.560;13.566;2024-03-02T15:07:49;39.60;;;14.20;;
5678;SDS011;2862;52.560;13.566;2024-03-02T15:17:52;38.03;;;14.30;;
5678;SDS011;2862;52.560;13.566;2024-03-02T15:27:57;30.57;;;10.47;;
5678;SDS011;2862;52.560;13.566;2024-03-02T15:37:59;32.93;;;11.20;;
5678;SDS011;2862;52.560;13.566;2024-03-02T15:48:05;40.07;;;14.10;;
5678;SDS011;2862;52.560;13.566;2024-03-02T15:58:08;48.40;;;13.80;;
5678;SDS011;2862;52.560;13.566;2024-03-02T16:08:13;39.63;;;15.20;;
5678;SDS011;2862;52.560;13.566;2024-03-02T16:18:16;35.90;;;13.90;;
5678;SDS011;2862;52.560;13.566;2024-03-02T16:28:20;31.90;;;12.40;;
5678;SDS011;2862;52.560;13.566;2024-03-02T16:38:24;37.93;;;13.60;;
5678;SDS011;2862;52.560;13.566;2024-03-02T16:48:28;32.30;;;12.03;;
5678;SDS011;2862;52.560;13.566;2024-03-02T16:58:31;32.97;;;13.00;;
5678;SDS011;2862;52.560;13.566;2024-03-02T17:08:35;33.47;;;12.70;;
5678;SDS011;2862;52.560;13.566;2024-03-02T17:18:38;36.70;;;14.13;;
5678;SDS011;2862;52.560;13.566;2024-03-02T17:28:43;43.30;;;18.30;;
5678;SDS011;2862;52.560;13.566;2024-03-02T17:38:46;44.33;;;17.93;;
5678;SDS011;2862;52.560;13.566;2024-03-02T17:48:51;48.87;;;17.90;;
5678;SDS011;2862;52.560;13.566;2024-03-02T17:58:54;66.03;;;26.47;;
5678;SDS011;2862;52.560;13.566;2024-03-02T18:08:58;42.97;;;19.30;;
5678;SDS011;2862;52.560;13.566;2024-03-02T18:19:02;48.00;;;21.77;;
5678;SDS011;2862;52.560;13.566;2024-03-02T18:29:07;51.60;;;21.20;;
5678;SDS011;2862;52.560;13.566;2024-03-02T18:39:10;47.07;;;19.87;;
5678;SDS011;2862;52.560;13.566;2024-03-02T18:49:14;45.27;;;19.70;;
5678;SDS011;2862;52.560;13.566;2024-03-02T18:59:17;47.30;;;20.50;;
5678;SDS011;2862;52.560;13.566;2024-03-02T19:09:22;48.47;;;21.10;;
5678;SDS011;2862;52.560;13.566;2024-03-02T19:19:25;52.50;;;24.20;;
5678;SDS011;2862;52.560;13.566;2024-03-02T19:29:29;49.37;;;24.03;;
5678;SDS011;2862;52.560;13.566;2024-03-02T19:39:32;52.70;;;23.60;;
5678;SDS011;2862;52.560;13.566;2024-03-02T19:49:39;55.57;;;24.77;;
5678;SDS011;2862;52.560;13.566;2024-03-02T19:59:42;64.97;;;30.20;;
5678;SDS011;2862;52.560;13.566;2024-03-02T20:09:46;66.77;;;31.83;;
5678;SDS011;2862;52.560;13.566;2024-03-02T20:19:51;63.33;;;31.30;;
5678;SDS011;2862;52.560;13.566;2024-03-02T20:29:56;69.47;;;33.87;;
5678;SDS011;2862;52.560;13.566;2024-03-02T20:39:59;63.57;;;32.50;;
5678;SDS011;2862;52.560;13.566;2024-03-02T20:50:04;68.53;;;33.03;;
5678;SDS011;2862;52.560;13.566;2024-03-02T21:00:08;63.57;;;32.13;;
5678;SDS011;2862;52.560;13.566;2024-03-02T21:10:13;71.47;;;33.73;;
5678;SDS011;2862;52.560;13.566;2024-03-02T21:20:15;66.37;;;31.23;;
5678;SDS011;2862;52.560;13.566;2024-03-02T21:30:20;77.43;;;33.97;;
5678;SDS011;2862;52.560;13.566;2024-03-02T21:40:23;71.53;;;35.17;;
5678;SDS011;2862;52.560;13.566;2024-03-02T21:50:27;70.60;;;32.73;;
5678;SDS011;2862;52.560;13.566;2024-03-02T22:00:31;72.40;;;31.83;;
5678;SDS011;2862;52.560;13.566;2024-03-02T22:10:38;66.67;;;30.80;;
5678;SDS011;2862;52.560;13.566;2024-03-02T22:20:41;74.60;;;33.13;;
5678;SDS011;2862;52.560;13.566;2024-03-02T22:30:45;73.87;;;33.43;;
5678;SDS011;2862;52.560;13.566;2024-03-02T22:40:48;76.50;;;36.83;;
5678;SDS011;2862;52.560;13.566;2024-03-02T22:50:52;80.60;;;39.03;;
5678;SDS011;2862;52.560;13.566;2024-03-02T23:00:55;87.93;;;39.97;;
5678;SDS011;2862;52.560;13.566;2024-03-02T23:11:01;95.23;;;41.70;;
5678;SDS011;2862;52.560;13.566;2024-03-02T23:21:04;96.73;;;42.20;;
5678;SDS011;2862;52.560;13.566;2024-03-02T23:31:08;105.93;;;47.37;;
5678;SDS011;2862;52.560;13.566;2024-03-02T23:41:12;101.53;;;44.97;;
5678;SDS011;2862;52.560;13.566;2024-03-02T23:51:17;108.37;;;49.50;;
